x

Eel River - 17nm Wsw Of Eureka, Ca (46022) Wave Buoy

11:50am - Sat 28th May 2016 All times are PDT. -7 hours from GMT.

  • Sig Wave height 8.2ft
  • Swell Direction
  • Peak Period 8s
  • Average Period 6s
  • Wind
    18mph, 22mph gusts
  • Sea Temp 51°f
  • Air Temp 53°f
  • Sea Pressure 1016.9mb
  • Eel River - 17nm Wsw Of Eureka, Ca
  • Eel River - 17nm Wsw Of Eureka, Ca

More Historic Weather Station data

Upgrade to MSW Pro to gain access to the past 30 days of data for over 8000 Wavebouys and Weather Stations around the globe.

Join Pro

Comparision Forecast

View Surf forecast
   
Sat 05/28 11:50am 8ft 8s 6s 18 22 mph 1016.9mb 51f 53f
10:50am 8.5ft 8s 6s 20 22 mph 1016.5mb 51f 53f
9:50am 8ft 8s 6s 22 25 mph 1016.5mb 51f 53f
8:50am 9ft 8s 6s 20 25 mph 1016.6mb 51f 52f
7:50am 10ft 8s 6s 20 27 mph 1016.2mb 51f 52f
6:50am 9ft 8s 6s 22 27 mph 1016mb 51f 52f
5:50am 9ft 8s 6s 22 27 mph 1016mb 51f 52f
4:50am 9ft 9s 6s 22 27 mph 1016mb 51f 52f
3:50am 9.5ft 9s 7s 22 27 mph 1016.3mb 51f 52f
2:50am 10ft 9s 7s 25 29 mph 1016.6mb 51f 53f
1:50am 9ft 8s 6s 22 27 mph 1017.3mb 51f 53f
12:50am 9ft 8s 6s 20 27 mph 1018.3mb 51f 53f
Fri 05/27 11:50pm 9ft 8s 6s 20 27 mph 1018.8mb 51f 53f
10:50pm 8.5ft 8s 6s 22 27 mph 1019.1mb 51f 54f
9:50pm 8ft 8s 6s 22 27 mph 1019.4mb 52f 54f
8:50pm 9ft 8s 6s 22 25 mph 1019.4mb 52f 54f
7:50pm 9ft 8s 6s 20 25 mph 1019.6mb 52f 54f
6:50pm 8.5ft 8s 6s 18 22 mph 1019.7mb 52f 54f
5:50pm 9ft 8s 6s 18 22 mph 1020mb 52f 54f
4:50pm 9ft 8s 6s 18 22 mph 1020.3mb 52f 54f
3:50pm 8.5ft 8s 6s 22 25 mph 1020.4mb 52f 54f
2:50pm 9ft 8s 6s 22 29 mph 1020.5mb 52f 54f
1:50pm 9ft 8s 6s 25 29 mph 1020.4mb 51f 54f
12:50pm 8.5ft 8s 6s 25 29 mph 1020.6mb 51f 54f
11:50am 9ft 8s 6s 25 29 mph 1020.7mb 51f 54f
10:50am 8.5ft 8s 6s 25 29 mph 1020.6mb 52f 54f
9:50am 8ft 8s 6s 22 25 mph 1020.8mb 52f 53f
8:50am 8ft 8s 6s 20 25 mph 1021mb 52f 53f
7:50am 8ft 8s 6s 22 27 mph 1020.7mb 51f 54f
6:50am 8.5ft 8s 6s 22 29 mph 1020.5mb 51f 53f
5:50am 9ft 8s 6s 25 29 mph 1019.9mb 51f 53f
4:50am 10ft 9s 6s 27 34 mph 1019.6mb 52f 53f
3:50am 10ft 9s 6s 25 31 mph 1020mb 52f 53f
2:50am 11.5ft 8s 7s 27 31 mph 1020.4mb 52f 53f
1:50am 9ft 8s 6s 25 31 mph 1020.7mb 52f 54f
12:50am 8ft 8s 6s 25 29 mph 1021.3mb 52f 54f
Thu 05/26 11:50pm 8ft 8s 6s 22 29 mph 1021.8mb 52f 54f
10:50pm 7.5ft 8s 6s 20 25 mph 1022.2mb 52f 54f
9:50pm 8.5ft 8s 6s 22 27 mph 1022mb 52f 54f
8:50pm 8.5ft 8s 6s 20 27 mph 1021.9mb 52f 54f
7:50pm 8ft 8s 6s 20 25 mph 1022.1mb 52f 55f
6:50pm 8ft 7s 6s 20 25 mph 1022.3mb 53f 55f
5:50pm 8ft 8s 6s 18 22 mph 1022.6mb 53f 55f
4:50pm 8ft 7s 6s 20 27 mph 1022.9mb 53f 55f
3:50pm 7ft 8s 6s 22 27 mph 1022.9mb 53f 55f
2:50pm 7.5ft 8s 6s 20 22 mph 1023.3mb 53f 55f
1:50pm 7ft 8s 6s 20 25 mph 1023.4mb 53f 55f
12:50pm 7.5ft 7s 6s 22 25 mph 1023.2mb 53f 55f
11:50am 7.5ft 8s 6s 25 29 mph 1023mb 53f 55f
10:50am 7ft 8s 6s 25 29 mph 1023.2mb 53f 55f
9:50am 7ft 8s 6s 25 29 mph 1023mb 53f 55f
8:50am 7ft 8s 5s 25 31 mph 1022.6mb 53f 54f
7:50am 7ft 8s 6s 25 31 mph 1022.5mb 53f 54f
6:50am 7.5ft 8s 6s 25 27 mph 1022mb 52f 54f
5:50am 7.5ft 7s 6s 27 34 mph 1021.2mb 52f 54f
4:50am 8ft 7s 6s 25 31 mph 1021.3mb 53f 54f
3:50am 7ft 8s 6s 20 27 mph 1022mb 54f 55f
2:50am 6.5ft 8s 6s 20 27 mph 1022.7mb 55f 55f
1:50am 6ft 8s 6s 18 22 mph 1023.1mb 55f 55f
12:50am 6ft 7s 6s 18 22 mph 1023.5mb 54f 55f
Wed 05/25 11:50pm 5.5ft 8s 6s 20 22 mph 1023.6mb 54f 55f
10:50pm 5.5ft 9s 6s 16 20 mph 1023.9mb 54f 56f
9:50pm 5.5ft 8s 6s 16 20 mph 1023.8mb 54f 56f
8:50pm 5.5ft 8s 6s 16 18 mph 1023.5mb 54f 56f
7:50pm 5.5ft 9s 6s 18 20 mph 1023.2mb 54f 56f
6:50pm 5.5ft 9s 6s 18 20 mph 1022.8mb 55f 56f
5:50pm 6ft 9s 6s 18 22 mph 1022.8mb 54f 56f
4:50pm 5ft 9s 6s 16 18 mph 1022.9mb 55f 56f
3:50pm 5ft 9s 6s 18 20 mph 1022.8mb 55f 56f
2:50pm 5.5ft 9s 6s 16 18 mph 1023.1mb 55f 56f
1:50pm 5ft 9s 6s 13 16 mph 1023.1mb 55f 56f
12:50pm 5ft 9s 6s 13 16 mph 1023.1mb 55f 56f
11:50am 5.5ft 9s 6s 13 16 mph 1023mb 55f 55f
10:50am 5ft 8s 6s 20 22 mph 1022.4mb 55f 56f
9:50am 5ft 8s 6s 13 16 mph 1021.9mb 54f 56f
8:50am 5.5ft 9s 7s 13 16 mph 1021.2mb 54f 55f
7:50am 5ft 9s 7s 11 16 mph 1020.6mb 55f 56f
6:50am 4.5ft 9s 7s 11 13 mph 1020.2mb 55f 56f
5:50am 4.5ft 9s 7s 9 11 mph 1020.1mb 55f 56f
4:50am 5ft 9s 7s 9 11 mph 1019.9mb 55f 56f
3:50am 5ft 9s 7s 7 9 mph 1019.7mb 55f 56f
2:50am 5ft 9s 7s 9 11 mph 1019.6mb 55f 56f
1:50am 5ft 9s 7s 11 13 mph 1019.4mb 55f 56f
12:50am 5ft 9s 7s 11 13 mph 1019.3mb 56f 56f
Tue 05/24 11:50pm 5.5ft 9s 7s 9 11 mph 1019.2mb 55f 56f
10:50pm 5.5ft 10s 7s 11 13 mph 1019.1mb 55f 56f
9:50pm 5.5ft 10s 7s 9 11 mph 1018.8mb 55f 56f
8:50pm 5ft 9s 7s 9 11 mph 1018.2mb 55f 56f
7:50pm 6ft 9s 7s 9 11 mph 1017.7mb 55f 56f